Time,TemperatureF,DewpointF,PressureIn,WindDirection,WindDirectionDegrees,WindSpeedMPH,WindSpeedGustMPH,Humidity,HourlyPrecipIn,Conditions,Clouds,dailyrainin,SoftwareType,DateUTC
2013-03-05 00:01:00,19.0,7.0,-100.00,NNW,335,6.0,9.0,58,-99.99,,,-99.99,,2013-03-05 07:01:00,
2013-03-05 00:11:00,19.0,7.0,-100.00,NNW,330,6.0,9.0,59,-99.99,,,-99.99,,2013-03-05 07:11:00,
2013-03-05 00:21:00,18.0,7.0,-100.00,SE,145,2.0,6.0,59,-99.99,,,-99.99,,2013-03-05 07:21:00,
2013-03-05 00:31:00,19.0,7.0,-100.00,SSE,155,7.0,9.0,60,-99.99,,,-99.99,,2013-03-05 07:31:00,
2013-03-05 00:41:00,18.0,7.0,-100.00,SSW,210,6.0,9.0,60,-99.99,,,-99.99,,2013-03-05 07:41:00,
2013-03-05 00:51:00,18.0,7.0,-100.00,West,265,12.0,13.0,62,-99.99,,,-99.99,,2013-03-05 07:51:00,
2013-03-05 01:02:00,18.0,7.0,-100.00,WSW,245,4.0,11.0,62,-99.99,,,-99.99,,2013-03-05 08:02:00,
2013-03-05 01:11:00,18.0,7.0,-100.00,SE,140,2.0,5.0,62,-99.99,,,-99.99,,2013-03-05 08:11:00,
2013-03-05 01:21:00,18.0,7.0,-100.00,SSE,155,2.0,4.0,62,-99.99,,,-99.99,,2013-03-05 08:21:00,
2013-03-05 01:31:00,18.0,7.0,-100.00,SW,215,4.0,7.0,62,-99.99,,,-99.99,,2013-03-05 08:31:00,
2013-03-05 01:41:00,17.0,7.0,-100.00,SW,215,4.0,6.0,62,-99.99,,,-99.99,,2013-03-05 08:41:00,
2013-03-05 01:52:00,17.0,6.0,-100.00,SSW,205,6.0,11.0,62,-99.99,,,-99.99,,2013-03-05 08:52:00,
2013-03-05 02:01:00,17.0,6.0,-100.00,SW,235,6.0,6.0,63,-99.99,,,-99.99,,2013-03-05 09:01:00,
2013-03-05 02:11:00,16.0,6.0,-100.00,SW,230,6.0,7.0,64,-99.99,,,-99.99,,2013-03-05 09:11:00,
2013-03-05 02:21:00,10.0,0.0,-100.00,SW,230,7.0,7.0,63,-99.99,,,-99.99,,2013-03-05 09:21:00,
2013-03-05 02:31:00,14.0,5.0,-100.00,SW,230,7.0,8.0,66,-99.99,,,-99.99,,2013-03-05 09:31:00,
2013-03-05 02:42:00,15.0,5.0,-100.00,South,170,4.0,7.0,65,-99.99,,,-99.99,,2013-03-05 09:42:00,
2013-03-05 02:52:00,16.0,6.0,-100.00,South,180,4.0,5.0,64,-99.99,,,-99.99,,2013-03-05 09:52:00,
2013-03-05 03:01:00,15.0,5.0,-100.00,SW,225,7.0,8.0,63,-99.99,,,-99.99,,2013-03-05 10:01:00,
2013-03-05 03:11:00,15.0,5.0,-100.00,SW,225,6.0,9.0,63,-99.99,,,-99.99,,2013-03-05 10:11:00,
2013-03-05 03:21:00,15.0,5.0,-100.00,South,185,6.0,7.0,63,-99.99,,,-99.99,,2013-03-05 10:21:00,
2013-03-05 03:32:00,15.0,4.0,-100.00,SW,215,6.0,8.0,63,-99.99,,,-99.99,,2013-03-05 10:32:00,
2013-03-05 03:42:00,15.0,5.0,-100.00,South,185,6.0,9.0,63,-99.99,,,-99.99,,2013-03-05 10:42:00,
2013-03-05 03:51:00,14.0,5.0,-100.00,SE,145,4.0,6.0,65,-99.99,,,-99.99,,2013-03-05 10:51:00,
2013-03-05 04:01:00,13.0,5.0,-100.00,SE,135,4.0,6.0,68,-99.99,,,-99.99,,2013-03-05 11:01:00,
2013-03-05 04:11:00,13.0,5.0,-100.00,SE,145,4.0,5.0,69,-99.99,,,-99.99,,2013-03-05 11:11:00,
2013-03-05 04:22:00,9.0,1.0,-100.00,South,180,3.0,6.0,71,-99.99,,,-99.99,,2013-03-05 11:22:00,
2013-03-05 04:32:00,5.0,-2.0,-100.00,ENE,70,6.0,6.0,71,-99.99,,,-99.99,,2013-03-05 11:32:00,
2013-03-05 04:42:00,10.0,4.0,-100.00,East,95,6.0,7.0,75,-99.99,,,-99.99,,2013-03-05 11:42:00,
2013-03-05 04:52:00,11.0,5.0,-100.00,SE,130,6.0,8.0,76,-99.99,,,-99.99,,2013-03-05 11:52:00,
2013-03-05 05:02:00,11.0,5.0,-100.00,ESE,105,4.0,6.0,77,-99.99,,,-99.99,,2013-03-05 12:02:00,
2013-03-05 05:11:00,10.0,5.0,-100.00,East,95,3.0,4.0,78,-99.99,,,-99.99,,2013-03-05 12:11:00,
2013-03-05 05:22:00,10.0,5.0,-100.00,East,80,6.0,7.0,78,-99.99,,,-99.99,,2013-03-05 12:22:00,
2013-03-05 05:32:00,9.0,4.0,-100.00,ESE,110,6.0,6.0,79,-99.99,,,-99.99,,2013-03-05 12:32:00,
2013-03-05 05:42:00,10.0,5.0,-100.00,ESE,110,7.0,7.0,80,-99.99,,,-99.99,,2013-03-05 12:42:00,
2013-03-05 05:52:00,9.0,4.0,-100.00,ENE,65,6.0,7.0,80,-99.99,,,-99.99,,2013-03-05 12:52:00,
2013-03-05 06:02:00,8.0,4.0,-100.00,East,90,4.0,6.0,80,-99.99,,,-99.99,,2013-03-05 13:02:00,
2013-03-05 06:11:00,9.0,4.0,-100.00,East,85,4.0,7.0,80,-99.99,,,-99.99,,2013-03-05 13:11:00,
2013-03-05 06:21:00,9.0,4.0,-100.00,East,95,6.0,7.0,80,-99.99,,,-99.99,,2013-03-05 13:21:00,
2013-03-05 06:32:00,9.0,4.0,-100.00,ESE,105,6.0,9.0,80,-99.99,,,-99.99,,2013-03-05 13:32:00,
2013-03-05 06:42:00,9.0,4.0,-100.00,ESE,110,6.0,9.0,80,-99.99,,,-99.99,,2013-03-05 13:42:00,
2013-03-05 06:52:00,9.0,4.0,-100.00,East,95,6.0,7.0,80,-99.99,,,-99.99,,2013-03-05 13:52:00,
2013-03-05 07:02:00,9.0,4.0,-100.00,East,90,5.0,7.0,79,-99.99,,,-99.99,,2013-03-05 14:02:00,
2013-03-05 07:11:00,10.0,5.0,-100.00,East,90,6.0,6.0,78,-99.99,,,-99.99,,2013-03-05 14:11:00,
2013-03-05 07:21:00,10.0,5.0,-100.00,East,90,6.0,9.0,77,-99.99,,,-99.99,,2013-03-05 14:21:00,
2013-03-05 07:32:00,12.0,6.0,-100.00,East,90,6.0,7.0,77,-99.99,,,-99.99,,2013-03-05 14:32:00,
2013-03-05 07:42:00,13.0,6.0,-100.00,East,100,6.0,8.0,74,-99.99,,,-99.99,,2013-03-05 14:42:00,
2013-03-05 07:52:00,13.0,6.0,-100.00,East,85,8.0,9.0,73,-99.99,,,-99.99,,2013-03-05 14:52:00,
2013-03-05 08:01:00,15.0,7.0,-100.00,ESE,115,7.0,9.0,71,-99.99,,,-99.99,,2013-03-05 15:01:00,
2013-03-05 08:11:00,16.0,9.0,-100.00,ESE,105,6.0,9.0,71,-99.99,,,-99.99,,2013-03-05 15:11:00,
2013-03-05 08:21:00,17.0,9.0,-100.00,East,95,6.0,9.0,70,-99.99,,,-99.99,,2013-03-05 15:21:00,
2013-03-05 08:32:00,18.0,10.0,-100.00,East,95,6.0,8.0,68,-99.99,,,-99.99,,2013-03-05 15:32:00,
2013-03-05 08:42:00,20.0,10.0,-100.00,SE,130,7.0,9.0,63,-99.99,,,-99.99,,2013-03-05 15:42:00,
2013-03-05 08:51:00,21.0,9.0,-100.00,ESE,105,9.0,11.0,58,-99.99,,,-99.99,,2013-03-05 15:51:00,
2013-03-05 09:01:00,22.0,8.0,-100.00,ESE,120,7.0,10.0,56,-99.99,,,-99.99,,2013-03-05 16:01:00,
2013-03-05 09:11:00,22.0,9.0,-100.00,East,100,6.0,10.0,57,-99.99,,,-99.99,,2013-03-05 16:11:00,
2013-03-05 09:21:00,23.0,9.0,-100.00,East,80,8.0,9.0,55,-99.99,,,-99.99,,2013-03-05 16:21:00,
2013-03-05 09:32:00,24.0,9.0,-100.00,East,95,7.0,11.0,53,-99.99,,,-99.99,,2013-03-05 16:32:00,
2013-03-05 09:42:00,25.0,10.0,-100.00,East,80,7.0,9.0,50,-99.99,,,-99.99,,2013-03-05 16:42:00,
2013-03-05 09:51:00,26.0,8.0,-100.00,East,80,10.0,12.0,46,-99.99,,,-99.99,,2013-03-05 16:51:00,
2013-03-05 10:01:00,28.0,9.0,-100.00,East,80,9.0,13.0,44,-99.99,,,-99.99,,2013-03-05 17:01:00,
2013-03-05 10:11:00,28.0,9.0,-100.00,NE,40,7.0,11.0,43,-99.99,,,-99.99,,2013-03-05 17:11:00,
2013-03-05 10:21:00,29.0,9.0,-100.00,NNE,25,7.0,11.0,41,-99.99,,,-99.99,,2013-03-05 17:21:00,
2013-03-05 10:32:00,30.0,9.0,-100.00,NE,45,9.0,12.0,41,-99.99,,,-99.99,,2013-03-05 17:32:00,
2013-03-05 10:41:00,31.0,9.0,-100.00,NE,40,6.0,9.0,38,-99.99,,,-99.99,,2013-03-05 17:41:00,
2013-03-05 10:52:00,32.0,9.0,-100.00,NE,35,5.0,9.0,37,-99.99,,,-99.99,,2013-03-05 17:52:00,
2013-03-05 11:01:00,32.0,9.0,-100.00,NNE,25,7.0,11.0,36,-99.99,,,-99.99,,2013-03-05 18:01:00,
2013-03-05 11:11:00,32.0,9.0,-100.00,NNE,25,7.0,11.0,36,-99.99,,,-99.99,,2013-03-05 18:11:00,
2013-03-05 11:21:00,33.0,8.0,-100.00,NNE,30,6.0,12.0,34,-99.99,,,-99.99,,2013-03-05 18:21:00,
2013-03-05 11:32:00,34.0,9.0,-100.00,NNE,25,9.0,12.0,35,-99.99,,,-99.99,,2013-03-05 18:32:00,
2013-03-05 11:42:00,34.0,9.0,-100.00,NNE,30,9.0,14.0,34,-99.99,,,-99.99,,2013-03-05 18:42:00,
2013-03-05 11:52:00,35.0,9.0,-100.00,NNE,20,7.0,11.0,33,-99.99,,,-99.99,,2013-03-05 18:52:00,
2013-03-05 12:01:00,36.0,8.0,-100.00,North,10,6.0,11.0,30,-99.99,,,-99.99,,2013-03-05 19:01:00,
2013-03-05 12:11:00,36.0,9.0,-100.00,NNE,25,9.0,13.0,32,-99.99,,,-99.99,,2013-03-05 19:11:00,
2013-03-05 12:21:00,37.0,9.0,-100.00,NE,40,6.0,11.0,31,-99.99,,,-99.99,,2013-03-05 19:21:00,
2013-03-05 12:32:00,37.0,9.0,-100.00,North,10,9.0,12.0,31,-99.99,,,-99.99,,2013-03-05 19:32:00,
2013-03-05 12:42:00,37.0,9.0,-100.00,NNE,15,7.0,13.0,30,-99.99,,,-99.99,,2013-03-05 19:42:00,
2013-03-05 12:51:00,37.0,9.0,-100.00,North,10,9.0,12.0,30,-99.99,,,-99.99,,2013-03-05 19:51:00,
2013-03-05 13:01:00,37.0,9.0,-100.00,North,10,9.0,12.0,30,-99.99,,,-99.99,,2013-03-05 20:01:00,
2013-03-05 13:11:00,38.0,10.0,-100.00,NE,55,10.0,16.0,31,-99.99,,,-99.99,,2013-03-05 20:11:00,
2013-03-05 13:21:00,38.0,10.0,-100.00,NE,35,9.0,14.0,31,-99.99,,,-99.99,,2013-03-05 20:21:00,
2013-03-05 13:32:00,38.0,10.0,-100.00,NE,45,9.0,16.0,31,-99.99,,,-99.99,,2013-03-05 20:32:00,
2013-03-05 13:41:00,38.0,10.0,-100.00,NE,45,9.0,15.0,31,-99.99,,,-99.99,,2013-03-05 20:41:00,
2013-03-05 13:52:00,38.0,10.0,-100.00,East,85,9.0,14.0,30,-99.99,,,-99.99,,2013-03-05 20:52:00,
2013-03-05 14:01:00,39.0,10.0,-100.00,NE,55,9.0,15.0,29,-99.99,,,-99.99,,2013-03-05 21:01:00,
2013-03-05 14:11:00,39.0,11.0,-100.00,NE,40,7.0,16.0,30,-99.99,,,-99.99,,2013-03-05 21:11:00,
2013-03-05 14:21:00,39.0,11.0,-100.00,NNE,30,11.0,18.0,30,-99.99,,,-99.99,,2013-03-05 21:21:00,
2013-03-05 14:31:00,39.0,10.0,-100.00,NE,35,11.0,17.0,29,-99.99,,,-99.99,,2013-03-05 21:31:00,
2013-03-05 14:41:00,39.0,10.0,-100.00,NNE,30,12.0,18.0,29,-99.99,,,-99.99,,2013-03-05 21:41:00,
2013-03-05 14:52:00,40.0,10.0,-100.00,NNE,30,11.0,16.0,29,-99.99,,,-99.99,,2013-03-05 21:52:00,
2013-03-05 15:01:00,40.0,10.0,-100.00,NNE,30,11.0,16.0,29,-99.99,,,-99.99,,2013-03-05 22:01:00,
2013-03-05 15:11:00,39.0,10.0,-100.00,NE,35,11.0,17.0,29,-99.99,,,-99.99,,2013-03-05 22:11:00,
2013-03-05 15:21:00,39.0,11.0,-100.00,NE,40,11.0,17.0,30,-99.99,,,-99.99,,2013-03-05 22:21:00,
2013-03-05 15:32:00,34.0,7.0,-100.00,NNE,25,8.0,17.0,31,-99.99,,,-99.99,,2013-03-05 22:32:00,
2013-03-05 15:41:00,39.0,12.0,-100.00,NE,35,15.0,19.0,31,-99.99,,,-99.99,,2013-03-05 22:41:00,
2013-03-05 15:52:00,40.0,13.0,-100.00,NE,35,11.0,17.0,32,-99.99,,,-99.99,,2013-03-05 22:52:00,
2013-03-05 16:01:00,40.0,13.0,-100.00,NE,45,12.0,19.0,33,-99.99,,,-99.99,,2013-03-05 23:01:00,
2013-03-05 16:11:00,40.0,14.0,-100.00,NNE,30,12.0,17.0,34,-99.99,,,-99.99,,2013-03-05 23:11:00,
2013-03-05 16:21:00,40.0,14.0,-100.00,NNE,30,12.0,19.0,34,-99.99,,,-99.99,,2013-03-05 23:21:00,
2013-03-05 16:32:00,40.0,15.0,-100.00,NNE,30,12.0,17.0,35,-99.99,,,-99.99,,2013-03-05 23:32:00,
2013-03-05 16:41:00,40.0,15.0,-100.00,NE,55,12.0,17.0,35,-99.99,,,-99.99,,2013-03-05 23:41:00,
2013-03-05 16:52:00,40.0,15.0,-100.00,NE,50,12.0,16.0,34,-99.99,,,-99.99,,2013-03-05 23:52:00,
2013-03-05 17:01:00,40.0,15.0,-100.00,NE,55,13.0,18.0,34,-99.99,,,-99.99,,2013-03-06 00:01:00,
2013-03-05 17:11:00,40.0,14.0,-100.00,NE,55,11.0,16.0,35,-99.99,,,-99.99,,2013-03-06 00:11:00,
2013-03-05 17:21:00,40.0,15.0,-100.00,NE,50,12.0,16.0,35,-99.99,,,-99.99,,2013-03-06 00:21:00,
2013-03-05 17:32:00,39.0,15.0,-100.00,NE,55,8.0,13.0,36,-99.99,,,-99.99,,2013-03-06 00:32:00,
2013-03-05 17:41:00,39.0,15.0,-100.00,NE,50,7.0,11.0,36,-99.99,,,-99.99,,2013-03-06 00:41:00,
2013-03-05 17:51:00,38.0,15.0,-100.00,NE,40,6.0,9.0,38,-99.99,,,-99.99,,2013-03-06 00:51:00,
2013-03-05 18:01:00,37.0,15.0,-100.00,NNE,20,5.0,8.0,40,-99.99,,,-99.99,,2013-03-06 01:01:00,
2013-03-05 18:11:00,36.0,15.0,-100.00,NE,35,6.0,8.0,41,-99.99,,,-99.99,,2013-03-06 01:11:00,
2013-03-05 18:21:00,35.0,15.0,-100.00,NNE,25,6.0,8.0,44,-99.99,,,-99.99,,2013-03-06 01:21:00,
2013-03-05 18:31:00,35.0,16.0,-100.00,NNE,15,7.0,9.0,46,-99.99,,,-99.99,,2013-03-06 01:31:00,
2013-03-05 18:41:00,34.0,16.0,-100.00,NNE,20,7.0,9.0,48,-99.99,,,-99.99,,2013-03-06 01:41:00,
2013-03-05 18:51:00,33.0,16.0,-100.00,NNE,20,7.0,9.0,49,-99.99,,,-99.99,,2013-03-06 01:51:00,
2013-03-05 19:01:00,33.0,17.0,-100.00,NNE,20,8.0,10.0,52,-99.99,,,-99.99,,2013-03-06 02:01:00,
2013-03-05 19:11:00,32.0,18.0,-100.00,NNE,15,9.0,11.0,55,-99.99,,,-99.99,,2013-03-06 02:11:00,
2013-03-05 19:21:00,32.0,19.0,-100.00,NNE,15,9.0,11.0,57,-99.99,,,-99.99,,2013-03-06 02:21:00,
2013-03-05 19:31:00,31.0,18.0,-100.00,North,5,9.0,10.0,58,-99.99,,,-99.99,,2013-03-06 02:31:00,
2013-03-05 19:41:00,31.0,19.0,-100.00,NNE,15,7.0,10.0,60,-99.99,,,-99.99,,2013-03-06 02:41:00,
2013-03-05 19:52:00,31.0,19.0,-100.00,North,0,10.0,13.0,62,-99.99,,,-99.99,,2013-03-06 02:52:00,
2013-03-05 20:01:00,30.0,19.0,-100.00,North,5,7.0,13.0,63,-99.99,,,-99.99,,2013-03-06 03:01:00,
2013-03-05 20:11:00,29.0,19.0,-100.00,NNE,25,9.0,11.0,66,-99.99,,,-99.99,,2013-03-06 03:11:00,
2013-03-05 20:21:00,29.0,20.0,-100.00,NNE,30,8.0,11.0,66,-99.99,,,-99.99,,2013-03-06 03:21:00,
2013-03-05 20:31:00,29.0,20.0,-100.00,NE,35,6.0,9.0,68,-99.99,,,-99.99,,2013-03-06 03:31:00,
2013-03-05 20:41:00,28.0,19.0,-100.00,NE,35,4.0,8.0,69,-99.99,,,-99.99,,2013-03-06 03:41:00,
2013-03-05 20:52:00,27.0,19.0,-100.00,NNE,25,6.0,8.0,72,-99.99,,,-99.99,,2013-03-06 03:52:00,
2013-03-05 21:02:00,27.0,20.0,-100.00,NNE,30,7.0,10.0,73,-99.99,,,-99.99,,2013-03-06 04:02:00,
2013-03-05 21:11:00,28.0,20.0,-100.00,NNE,25,6.0,11.0,71,-99.99,,,-99.99,,2013-03-06 04:11:00,
2013-03-05 21:21:00,28.0,20.0,-100.00,NE,45,7.0,10.0,71,-99.99,,,-99.99,,2013-03-06 04:21:00,
2013-03-05 21:32:00,28.0,20.0,-100.00,NE,40,6.0,11.0,71,-99.99,,,-99.99,,2013-03-06 04:32:00,
2013-03-05 21:41:00,28.0,20.0,-100.00,NE,40,7.0,11.0,72,-99.99,,,-99.99,,2013-03-06 04:41:00,
2013-03-05 21:51:00,28.0,20.0,-100.00,NE,45,8.0,11.0,72,-99.99,,,-99.99,,2013-03-06 04:51:00,
2013-03-05 22:01:00,27.0,19.0,-100.00,ENE,60,10.0,12.0,72,-99.99,,,-99.99,,2013-03-06 05:01:00,
2013-03-05 22:11:00,27.0,19.0,-100.00,ENE,65,9.0,12.0,73,-99.99,,,-99.99,,2013-03-06 05:11:00,
2013-03-05 22:22:00,27.0,19.0,-100.00,East,85,11.0,13.0,72,-99.99,,,-99.99,,2013-03-06 05:22:00,
2013-03-05 22:32:00,27.0,19.0,-100.00,ENE,70,9.0,12.0,71,-99.99,,,-99.99,,2013-03-06 05:32:00,
2013-03-05 22:42:00,27.0,19.0,-100.00,ENE,65,7.0,11.0,73,-99.99,,,-99.99,,2013-03-06 05:42:00,
2013-03-05 22:52:00,26.0,20.0,-100.00,ENE,65,8.0,10.0,75,-99.99,,,-99.99,,2013-03-06 05:52:00,
2013-03-05 23:02:00,26.0,19.0,-100.00,ENE,60,7.0,11.0,75,-99.99,,,-99.99,,2013-03-06 06:02:00,
2013-03-05 23:11:00,26.0,20.0,-100.00,ENE,70,9.0,12.0,76,-99.99,,,-99.99,,2013-03-06 06:11:00,
2013-03-05 23:22:00,26.0,20.0,-100.00,ENE,70,9.0,12.0,76,-99.99,,,-99.99,,2013-03-06 06:22:00,
2013-03-05 23:31:00,26.0,20.0,-100.00,ENE,70,9.0,12.0,76,-99.99,,,-99.99,,2013-03-06 06:31:00,
2013-03-05 23:42:00,26.0,19.0,-100.00,ENE,65,6.0,9.0,76,-99.99,,,-99.99,,2013-03-06 06:42:00,
2013-03-05 23:52:00,26.0,19.0,-100.00,ENE,65,9.0,10.0,76,-99.99,,,-99.99,,2013-03-06 06:52:00,